Impacts TAF Board
For situational awareness. Not to be used for flight planning purposes.
IDs:

KBOS - Boston/Logan Intl, MA, US

Issued at 2323 UTC 19 Mar 2019
Updated at 0246 UTC 20 Mar 2019
Potential Impact None Slight Moderate High
Time<<21/03Z 21/04Z 21/05Z 21/06Z 21/07Z 21/08Z 21/09Z 21/10Z 21/11Z 21/12Z 21/13Z 21/14Z 21/15Z
Type PRVL PRVL PRVL
VIS >6 >6 >6
CIG -- -- --
Cover FEW FEW FEW
FltCat VFR VFR VFR
WX -- -- --
WDir 150 150 150
WSpd 6 6 6
WGst -- -- --
Raw TAF
KBOS 192323Z 2000/2106 32010KT P6SM FEW050
  FM200300 01006KT P6SM FEW050
  FM200600 26006KT P6SM FEW050
  FM201500 15006KT P6SM FEW050


METAR Board
Radar Display
Forecast Discussion
For situational awareness. Not to be used for flight planning purposes.